sensor_id;sensor_type;location;lat;lon;timestamp;P1;durP1;ratioP1;P2;durP2;ratioP2
21245;SDS011;10781;50.928;4.440;2023-04-03T00:01:11;13.45;;;8.50;;
21245;SDS011;10781;50.928;4.440;2023-04-03T00:03:37;10.80;;;8.00;;
21245;SDS011;10781;50.928;4.440;2023-04-03T00:06:03;9.52;;;7.25;;
21245;SDS011;10781;50.928;4.440;2023-04-03T00:08:31;12.65;;;7.63;;
21245;SDS011;10781;50.928;4.440;2023-04-03T00:10:57;9.13;;;7.22;;
21245;SDS011;10781;50.928;4.440;2023-04-03T00:13:23;9.65;;;7.10;;
21245;SDS011;10781;50.928;4.440;2023-04-03T00:15:50;10.38;;;7.85;;
21245;SDS011;10781;50.928;4.440;2023-04-03T00:18:15;10.07;;;7.53;;
21245;SDS011;10781;50.928;4.440;2023-04-03T00:20:41;10.32;;;7.63;;
21245;SDS011;10781;50.928;4.440;2023-04-03T00:23:07;11.00;;;7.07;;
21245;SDS011;10781;50.928;4.440;2023-04-03T00:25:33;9.73;;;6.47;;
21245;SDS011;10781;50.928;4.440;2023-04-03T00:27:59;10.75;;;7.03;;
21245;SDS011;10781;50.928;4.440;2023-04-03T00:30:24;11.07;;;7.05;;
21245;SDS011;10781;50.928;4.440;2023-04-03T00:32:51;10.00;;;6.88;;
21245;SDS011;10781;50.928;4.440;2023-04-03T00:35:18;10.43;;;7.35;;
21245;SDS011;10781;50.928;4.440;2023-04-03T00:37:45;12.68;;;7.07;;
21245;SDS011;10781;50.928;4.440;2023-04-03T00:40:12;10.50;;;7.15;;
21245;SDS011;10781;50.928;4.440;2023-04-03T00:42:40;11.10;;;6.57;;
21245;SDS011;10781;50.928;4.440;2023-04-03T00:45:22;10.13;;;6.88;;
21245;SDS011;10781;50.928;4.440;2023-04-03T00:48:03;10.90;;;7.05;;
21245;SDS011;10781;50.928;4.440;2023-04-03T00:50:31;8.23;;;6.68;;
21245;SDS011;10781;50.928;4.440;2023-04-03T00:53:00;10.30;;;7.18;;
21245;SDS011;10781;50.928;4.440;2023-04-03T00:55:26;12.05;;;7.03;;
21245;SDS011;10781;50.928;4.440;2023-04-03T00:57:52;8.90;;;6.20;;
21245;SDS011;10781;50.928;4.440;2023-04-03T01:00:20;10.50;;;7.03;;
21245;SDS011;10781;50.928;4.440;2023-04-03T01:02:48;9.30;;;6.93;;
21245;SDS011;10781;50.928;4.440;2023-04-03T01:05:14;10.50;;;6.85;;
21245;SDS011;10781;50.928;4.440;2023-04-03T01:07:42;8.18;;;6.63;;
21245;SDS011;10781;50.928;4.440;2023-04-03T01:10:09;7.50;;;6.07;;
21245;SDS011;10781;50.928;4.440;2023-04-03T01:12:39;8.32;;;6.78;;
21245;SDS011;10781;50.928;4.440;2023-04-03T01:15:11;8.02;;;6.05;;
21245;SDS011;10781;50.928;4.440;2023-04-03T01:17:39;8.23;;;6.32;;
21245;SDS011;10781;50.928;4.440;2023-04-03T01:22:39;11.77;;;6.75;;
21245;SDS011;10781;50.928;4.440;2023-04-03T01:25:15;9.90;;;7.00;;
21245;SDS011;10781;50.928;4.440;2023-04-03T01:27:41;9.82;;;6.47;;
21245;SDS011;10781;50.928;4.440;2023-04-03T01:30:07;9.38;;;7.00;;
21245;SDS011;10781;50.928;4.440;2023-04-03T01:32:33;8.88;;;6.05;;
21245;SDS011;10781;50.928;4.440;2023-04-03T01:34:58;10.30;;;6.85;;
21245;SDS011;10781;50.928;4.440;2023-04-03T01:37:24;11.70;;;6.32;;
21245;SDS011;10781;50.928;4.440;2023-04-03T01:39:50;10.35;;;6.60;;
21245;SDS011;10781;50.928;4.440;2023-04-03T01:42:15;9.10;;;6.07;;
21245;SDS011;10781;50.928;4.440;2023-04-03T01:44:41;10.38;;;6.63;;
21245;SDS011;10781;50.928;4.440;2023-04-03T01:47:07;9.63;;;6.50;;
21245;SDS011;10781;50.928;4.440;2023-04-03T01:49:32;9.00;;;6.22;;
21245;SDS011;10781;50.928;4.440;2023-04-03T01:51:58;10.80;;;6.35;;
21245;SDS011;10781;50.928;4.440;2023-04-03T01:54:24;8.80;;;6.45;;
21245;SDS011;10781;50.928;4.440;2023-04-03T01:56:49;8.52;;;6.50;;
21245;SDS011;10781;50.928;4.440;2023-04-03T01:59:15;9.27;;;6.30;;
21245;SDS011;10781;50.928;4.440;2023-04-03T02:01:42;8.63;;;6.40;;
21245;SDS011;10781;50.928;4.440;2023-04-03T02:04:10;8.73;;;6.05;;
21245;SDS011;10781;50.928;4.440;2023-04-03T02:06:36;10.50;;;5.75;;
21245;SDS011;10781;50.928;4.440;2023-04-03T02:09:03;9.80;;;6.07;;
21245;SDS011;10781;50.928;4.440;2023-04-03T02:11:29;39.40;;;22.08;;
21245;SDS011;10781;50.928;4.440;2023-04-03T02:13:55;29.83;;;19.58;;
21245;SDS011;10781;50.928;4.440;2023-04-03T02:16:21;13.18;;;8.57;;
21245;SDS011;10781;50.928;4.440;2023-04-03T02:18:46;9.95;;;6.10;;
21245;SDS011;10781;50.928;4.440;2023-04-03T02:21:12;8.95;;;6.43;;
21245;SDS011;10781;50.928;4.440;2023-04-03T02:23:38;14.52;;;7.95;;
21245;SDS011;10781;50.928;4.440;2023-04-03T02:26:07;53.00;;;28.15;;
21245;SDS011;10781;50.928;4.440;2023-04-03T02:28:35;11.40;;;7.30;;
21245;SDS011;10781;50.928;4.440;2023-04-03T02:31:02;7.15;;;5.82;;
21245;SDS011;10781;50.928;4.440;2023-04-03T02:33:29;10.25;;;6.22;;
21245;SDS011;10781;50.928;4.440;2023-04-03T02:35:55;11.07;;;6.60;;
21245;SDS011;10781;50.928;4.440;2023-04-03T02:38:22;9.18;;;6.47;;
21245;SDS011;10781;50.928;4.440;2023-04-03T02:40:48;9.73;;;6.20;;
21245;SDS011;10781;50.928;4.440;2023-04-03T02:43:14;8.75;;;6.35;;
21245;SDS011;10781;50.928;4.440;2023-04-03T02:45:40;8.55;;;5.97;;
21245;SDS011;10781;50.928;4.440;2023-04-03T02:48:06;10.20;;;6.68;;
21245;SDS011;10781;50.928;4.440;2023-04-03T02:50:31;7.68;;;6.25;;
21245;SDS011;10781;50.928;4.440;2023-04-03T02:52:57;9.18;;;6.18;;
21245;SDS011;10781;50.928;4.440;2023-04-03T02:55:23;9.48;;;6.15;;
21245;SDS011;10781;50.928;4.440;2023-04-03T02:57:48;8.55;;;6.40;;
21245;SDS011;10781;50.928;4.440;2023-04-03T03:00:14;9.00;;;6.07;;
21245;SDS011;10781;50.928;4.440;2023-04-03T03:02:40;8.10;;;5.95;;
21245;SDS011;10781;50.928;4.440;2023-04-03T03:05:06;8.55;;;6.13;;
21245;SDS011;10781;50.928;4.440;2023-04-03T03:07:32;11.00;;;6.70;;
21245;SDS011;10781;50.928;4.440;2023-04-03T03:09:58;10.75;;;6.28;;
21245;SDS011;10781;50.928;4.440;2023-04-03T03:12:23;8.70;;;6.20;;
21245;SDS011;10781;50.928;4.440;2023-04-03T03:14:49;10.10;;;6.72;;
21245;SDS011;10781;50.928;4.440;2023-04-03T03:17:15;11.10;;;6.55;;
21245;SDS011;10781;50.928;4.440;2023-04-03T03:19:41;9.23;;;6.25;;
21245;SDS011;10781;50.928;4.440;2023-04-03T03:22:07;10.73;;;6.65;;
21245;SDS011;10781;50.928;4.440;2023-04-03T03:24:33;9.88;;;6.88;;
21245;SDS011;10781;50.928;4.440;2023-04-03T03:26:58;10.32;;;7.20;;
21245;SDS011;10781;50.928;4.440;2023-04-03T03:29:24;9.70;;;7.07;;
21245;SDS011;10781;50.928;4.440;2023-04-03T03:31:50;10.65;;;6.72;;
21245;SDS011;10781;50.928;4.440;2023-04-03T03:34:16;9.35;;;6.32;;
21245;SDS011;10781;50.928;4.440;2023-04-03T03:36:42;10.35;;;7.03;;
21245;SDS011;10781;50.928;4.440;2023-04-03T03:39:08;11.00;;;6.82;;
21245;SDS011;10781;50.928;4.440;2023-04-03T03:41:34;11.15;;;7.22;;
21245;SDS011;10781;50.928;4.440;2023-04-03T03:44:00;13.63;;;6.65;;
21245;SDS011;10781;50.928;4.440;2023-04-03T03:46:25;11.57;;;7.38;;
21245;SDS011;10781;50.928;4.440;2023-04-03T03:48:51;11.00;;;7.35;;
21245;SDS011;10781;50.928;4.440;2023-04-03T03:51:17;9.95;;;7.18;;
21245;SDS011;10781;50.928;4.440;2023-04-03T03:53:42;12.55;;;7.35;;
21245;SDS011;10781;50.928;4.440;2023-04-03T03:56:08;16.20;;;7.63;;
21245;SDS011;10781;50.928;4.440;2023-04-03T03:58:34;14.40;;;8.30;;
21245;SDS011;10781;50.928;4.440;2023-04-03T04:01:01;11.50;;;8.27;;
21245;SDS011;10781;50.928;4.440;2023-04-03T04:03:27;12.15;;;7.88;;
21245;SDS011;10781;50.928;4.440;2023-04-03T04:05:53;13.32;;;8.23;;
21245;SDS011;10781;50.928;4.440;2023-04-03T04:08:18;11.15;;;7.45;;
21245;SDS011;10781;50.928;4.440;2023-04-03T04:10:44;10.68;;;7.75;;
21245;SDS011;10781;50.928;4.440;2023-04-03T04:13:10;10.70;;;6.93;;
21245;SDS011;10781;50.928;4.440;2023-04-03T04:15:36;10.50;;;7.20;;
21245;SDS011;10781;50.928;4.440;2023-04-03T04:18:01;11.23;;;7.80;;
21245;SDS011;10781;50.928;4.440;2023-04-03T04:20:27;10.02;;;8.10;;
21245;SDS011;10781;50.928;4.440;2023-04-03T04:22:52;12.48;;;8.20;;
21245;SDS011;10781;50.928;4.440;2023-04-03T04:25:18;10.85;;;7.97;;
21245;SDS011;10781;50.928;4.440;2023-04-03T04:27:44;11.70;;;8.40;;
21245;SDS011;10781;50.928;4.440;2023-04-03T04:30:10;11.75;;;8.50;;
21245;SDS011;10781;50.928;4.440;2023-04-03T04:32:36;12.48;;;8.57;;
21245;SDS011;10781;50.928;4.440;2023-04-03T04:35:02;13.05;;;8.27;;
21245;SDS011;10781;50.928;4.440;2023-04-03T04:37:28;12.48;;;8.00;;
21245;SDS011;10781;50.928;4.440;2023-04-03T04:39:55;14.23;;;8.48;;
21245;SDS011;10781;50.928;4.440;2023-04-03T04:42:20;13.90;;;7.93;;
21245;SDS011;10781;50.928;4.440;2023-04-03T04:44:46;9.90;;;8.18;;
21245;SDS011;10781;50.928;4.440;2023-04-03T04:47:12;13.75;;;8.00;;
21245;SDS011;10781;50.928;4.440;2023-04-03T04:49:37;11.18;;;7.53;;
21245;SDS011;10781;50.928;4.440;2023-04-03T04:52:03;13.80;;;8.80;;
21245;SDS011;10781;50.928;4.440;2023-04-03T04:54:29;15.15;;;8.50;;
21245;SDS011;10781;50.928;4.440;2023-04-03T04:56:55;10.27;;;8.27;;
21245;SDS011;10781;50.928;4.440;2023-04-03T04:59:20;11.95;;;8.35;;
21245;SDS011;10781;50.928;4.440;2023-04-03T05:01:46;12.32;;;9.10;;
21245;SDS011;10781;50.928;4.440;2023-04-03T05:04:11;13.68;;;9.65;;
21245;SDS011;10781;50.928;4.440;2023-04-03T05:06:37;15.05;;;9.15;;
21245;SDS011;10781;50.928;4.440;2023-04-03T05:09:03;15.30;;;9.30;;
21245;SDS011;10781;50.928;4.440;2023-04-03T05:11:29;11.32;;;8.70;;
21245;SDS011;10781;50.928;4.440;2023-04-03T05:13:55;13.60;;;8.70;;
21245;SDS011;10781;50.928;4.440;2023-04-03T05:16:21;11.85;;;8.45;;
21245;SDS011;10781;50.928;4.440;2023-04-03T05:18:46;13.52;;;9.05;;
21245;SDS011;10781;50.928;4.440;2023-04-03T05:21:12;17.00;;;9.57;;
21245;SDS011;10781;50.928;4.440;2023-04-03T05:23:38;14.60;;;9.00;;
21245;SDS011;10781;50.928;4.440;2023-04-03T05:26:04;15.25;;;9.20;;
21245;SDS011;10781;50.928;4.440;2023-04-03T05:28:29;15.98;;;9.65;;
21245;SDS011;10781;50.928;4.440;2023-04-03T05:30:58;13.55;;;9.23;;
21245;SDS011;10781;50.928;4.440;2023-04-03T05:33:24;14.02;;;9.30;;
21245;SDS011;10781;50.928;4.440;2023-04-03T05:35:51;15.35;;;9.63;;
21245;SDS011;10781;50.928;4.440;2023-04-03T05:38:17;12.95;;;9.32;;
21245;SDS011;10781;50.928;4.440;2023-04-03T05:40:43;13.70;;;9.32;;
21245;SDS011;10781;50.928;4.440;2023-04-03T05:43:09;14.45;;;10.07;;
21245;SDS011;10781;50.928;4.440;2023-04-03T05:45:35;14.93;;;9.05;;
21245;SDS011;10781;50.928;4.440;2023-04-03T05:48:01;13.85;;;9.90;;
21245;SDS011;10781;50.928;4.440;2023-04-03T05:50:26;15.13;;;9.93;;
21245;SDS011;10781;50.928;4.440;2023-04-03T05:52:53;17.10;;;10.43;;
21245;SDS011;10781;50.928;4.440;2023-04-03T05:55:22;17.83;;;9.65;;
21245;SDS011;10781;50.928;4.440;2023-04-03T05:57:47;12.77;;;9.45;;
21245;SDS011;10781;50.928;4.440;2023-04-03T06:00:13;13.57;;;9.30;;
21245;SDS011;10781;50.928;4.440;2023-04-03T06:02:42;16.70;;;10.18;;
21245;SDS011;10781;50.928;4.440;2023-04-03T06:05:09;13.65;;;9.40;;
21245;SDS011;10781;50.928;4.440;2023-04-03T06:07:36;14.38;;;9.55;;
21245;SDS011;10781;50.928;4.440;2023-04-03T06:10:02;15.35;;;9.95;;
21245;SDS011;10781;50.928;4.440;2023-04-03T06:12:29;21.10;;;10.35;;
21245;SDS011;10781;50.928;4.440;2023-04-03T06:14:54;14.95;;;10.27;;
21245;SDS011;10781;50.928;4.440;2023-04-03T06:17:20;18.17;;;10.90;;
21245;SDS011;10781;50.928;4.440;2023-04-03T06:19:46;17.95;;;11.38;;
21245;SDS011;10781;50.928;4.440;2023-04-03T06:22:11;15.50;;;10.90;;
21245;SDS011;10781;50.928;4.440;2023-04-03T06:24:38;14.70;;;10.85;;
21245;SDS011;10781;50.928;4.440;2023-04-03T06:27:04;15.73;;;11.07;;
21245;SDS011;10781;50.928;4.440;2023-04-03T06:29:29;14.23;;;10.27;;
21245;SDS011;10781;50.928;4.440;2023-04-03T06:31:55;12.30;;;10.10;;
21245;SDS011;10781;50.928;4.440;2023-04-03T06:34:21;11.23;;;9.13;;
21245;SDS011;10781;50.928;4.440;2023-04-03T06:36:47;14.40;;;8.75;;
21245;SDS011;10781;50.928;4.440;2023-04-03T06:39:22;10.63;;;8.00;;
21245;SDS011;10781;50.928;4.440;2023-04-03T06:41:49;10.50;;;8.23;;
21245;SDS011;10781;50.928;4.440;2023-04-03T06:44:15;12.88;;;8.27;;
21245;SDS011;10781;50.928;4.440;2023-04-03T06:46:41;12.40;;;8.07;;
21245;SDS011;10781;50.928;4.440;2023-04-03T06:49:08;9.15;;;7.57;;
21245;SDS011;10781;50.928;4.440;2023-04-03T06:51:35;8.40;;;7.25;;
21245;SDS011;10781;50.928;4.440;2023-04-03T06:54:01;8.77;;;6.90;;
21245;SDS011;10781;50.928;4.440;2023-04-03T06:56:28;10.50;;;7.35;;
21245;SDS011;10781;50.928;4.440;2023-04-03T06:58:54;10.90;;;7.50;;
21245;SDS011;10781;50.928;4.440;2023-04-03T07:01:22;9.20;;;7.28;;
21245;SDS011;10781;50.928;4.440;2023-04-03T07:03:49;8.43;;;6.80;;
21245;SDS011;10781;50.928;4.440;2023-04-03T07:06:16;7.15;;;6.32;;
21245;SDS011;10781;50.928;4.440;2023-04-03T07:08:42;8.68;;;6.35;;
21245;SDS011;10781;50.928;4.440;2023-04-03T07:11:09;9.85;;;6.72;;
21245;SDS011;10781;50.928;4.440;2023-04-03T07:13:35;8.00;;;5.93;;
21245;SDS011;10781;50.928;4.440;2023-04-03T07:16:01;8.35;;;5.97;;
21245;SDS011;10781;50.928;4.440;2023-04-03T07:18:29;10.50;;;5.75;;
21245;SDS011;10781;50.928;4.440;2023-04-03T07:20:54;8.18;;;6.10;;
21245;SDS011;10781;50.928;4.440;2023-04-03T07:23:20;7.97;;;5.30;;
21245;SDS011;10781;50.928;4.440;2023-04-03T07:25:46;7.55;;;5.82;;
21245;SDS011;10781;50.928;4.440;2023-04-03T07:28:13;6.47;;;5.35;;
21245;SDS011;10781;50.928;4.440;2023-04-03T07:30:44;8.85;;;5.85;;
21245;SDS011;10781;50.928;4.440;2023-04-03T07:33:15;7.22;;;5.13;;
21245;SDS011;10781;50.928;4.440;2023-04-03T07:35:42;7.00;;;5.22;;
21245;SDS011;10781;50.928;4.440;2023-04-03T07:38:09;8.18;;;5.57;;
21245;SDS011;10781;50.928;4.440;2023-04-03T07:40:35;7.03;;;5.05;;
21245;SDS011;10781;50.928;4.440;2023-04-03T07:43:02;7.70;;;4.93;;
21245;SDS011;10781;50.928;4.440;2023-04-03T07:45:29;6.82;;;5.15;;
21245;SDS011;10781;50.928;4.440;2023-04-03T07:47:54;6.00;;;5.05;;
21245;SDS011;10781;50.928;4.440;2023-04-03T07:50:20;7.72;;;4.75;;
21245;SDS011;10781;50.928;4.440;2023-04-03T07:52:47;7.88;;;5.45;;
21245;SDS011;10781;50.928;4.440;2023-04-03T07:55:13;5.30;;;4.78;;
21245;SDS011;10781;50.928;4.440;2023-04-03T07:57:39;7.97;;;4.57;;
21245;SDS011;10781;50.928;4.440;2023-04-03T08:00:05;6.50;;;4.50;;
21245;SDS011;10781;50.928;4.440;2023-04-03T08:02:31;6.80;;;4.22;;
21245;SDS011;10781;50.928;4.440;2023-04-03T08:05:00;7.35;;;4.30;;
21245;SDS011;10781;50.928;4.440;2023-04-03T08:07:26;5.75;;;4.03;;
21245;SDS011;10781;50.928;4.440;2023-04-03T08:09:52;7.15;;;4.72;;
21245;SDS011;10781;50.928;4.440;2023-04-03T08:12:18;6.03;;;4.47;;
21245;SDS011;10781;50.928;4.440;2023-04-03T08:14:43;5.57;;;4.22;;
21245;SDS011;10781;50.928;4.440;2023-04-03T08:17:09;5.65;;;4.07;;
21245;SDS011;10781;50.928;4.440;2023-04-03T08:19:39;6.40;;;4.45;;
21245;SDS011;10781;50.928;4.440;2023-04-03T08:22:06;5.13;;;4.00;;
21245;SDS011;10781;50.928;4.440;2023-04-03T08:24:32;5.70;;;4.05;;
21245;SDS011;10781;50.928;4.440;2023-04-03T08:26:58;6.97;;;4.32;;
21245;SDS011;10781;50.928;4.440;2023-04-03T08:29:24;6.15;;;3.90;;
21245;SDS011;10781;50.928;4.440;2023-04-03T08:31:50;6.22;;;3.92;;
21245;SDS011;10781;50.928;4.440;2023-04-03T08:34:16;4.80;;;3.70;;
21245;SDS011;10781;50.928;4.440;2023-04-03T08:36:42;4.90;;;3.30;;
21245;SDS011;10781;50.928;4.440;2023-04-03T08:39:09;4.20;;;3.63;;
21245;SDS011;10781;50.928;4.440;2023-04-03T08:41:36;4.47;;;3.22;;
21245;SDS011;10781;50.928;4.440;2023-04-03T08:47:04;4.93;;;3.40;;
21245;SDS011;10781;50.928;4.440;2023-04-03T08:50:05;4.13;;;3.25;;
21245;SDS011;10781;50.928;4.440;2023-04-03T08:52:36;5.70;;;3.22;;
21245;SDS011;10781;50.928;4.440;2023-04-03T08:55:19;6.18;;;3.70;;
21245;SDS011;10781;50.928;4.440;2023-04-03T08:58:01;4.85;;;3.28;;
21245;SDS011;10781;50.928;4.440;2023-04-03T09:00:34;4.20;;;3.03;;
21245;SDS011;10781;50.928;4.440;2023-04-03T09:03:11;4.75;;;3.00;;
21245;SDS011;10781;50.928;4.440;2023-04-03T09:13:59;4.38;;;2.88;;
21245;SDS011;10781;50.928;4.440;2023-04-03T09:22:24;4.07;;;2.35;;
21245;SDS011;10781;50.928;4.440;2023-04-03T09:24:58;4.28;;;2.70;;
21245;SDS011;10781;50.928;4.440;2023-04-03T09:27:28;3.20;;;2.20;;
21245;SDS011;10781;50.928;4.440;2023-04-03T09:29:55;3.92;;;2.30;;
21245;SDS011;10781;50.928;4.440;2023-04-03T09:32:26;7.97;;;2.67;;
21245;SDS011;10781;50.928;4.440;2023-04-03T09:35:22;4.68;;;2.30;;
21245;SDS011;10781;50.928;4.440;2023-04-03T09:37:49;3.63;;;1.90;;
21245;SDS011;10781;50.928;4.440;2023-04-03T09:42:51;3.60;;;2.03;;
21245;SDS011;10781;50.928;4.440;2023-04-03T09:45:31;5.18;;;2.35;;
21245;SDS011;10781;50.928;4.440;2023-04-03T09:50:57;3.00;;;1.92;;
21245;SDS011;10781;50.928;4.440;2023-04-03T09:55:58;3.00;;;1.75;;
21245;SDS011;10781;50.928;4.440;2023-04-03T09:58:28;3.40;;;1.90;;
21245;SDS011;10781;50.928;4.440;2023-04-03T10:00:58;4.05;;;2.33;;
21245;SDS011;10781;50.928;4.440;2023-04-03T10:03:30;3.92;;;2.17;;
21245;SDS011;10781;50.928;4.440;2023-04-03T10:06:00;3.53;;;1.73;;
21245;SDS011;10781;50.928;4.440;2023-04-03T10:08:30;4.47;;;1.92;;
21245;SDS011;10781;50.928;4.440;2023-04-03T10:11:05;3.38;;;1.90;;
21245;SDS011;10781;50.928;4.440;2023-04-03T10:13:31;3.05;;;1.80;;
21245;SDS011;10781;50.928;4.440;2023-04-03T10:16:00;6.32;;;1.90;;
21245;SDS011;10781;50.928;4.440;2023-04-03T10:29:33;3.75;;;1.88;;
21245;SDS011;10781;50.928;4.440;2023-04-03T10:32:26;3.15;;;1.90;;
21245;SDS011;10781;50.928;4.440;2023-04-03T10:35:07;5.38;;;1.90;;
21245;SDS011;10781;50.928;4.440;2023-04-03T10:51:59;2.45;;;1.70;;
21245;SDS011;10781;50.928;4.440;2023-04-03T10:54:40;2.75;;;1.67;;
21245;SDS011;10781;50.928;4.440;2023-04-03T10:57:30;2.78;;;1.75;;
21245;SDS011;10781;50.928;4.440;2023-04-03T11:00:00;6.03;;;1.70;;
21245;SDS011;10781;50.928;4.440;2023-04-03T11:02:39;3.20;;;1.50;;
21245;SDS011;10781;50.928;4.440;2023-04-03T11:08:03;2.40;;;1.20;;
21245;SDS011;10781;50.928;4.440;2023-04-03T11:13:55;5.18;;;1.40;;
21245;SDS011;10781;50.928;4.440;2023-04-03T11:15:58;3.17;;;1.55;;
21245;SDS011;10781;50.928;4.440;2023-04-03T11:18:31;4.22;;;1.88;;
21245;SDS011;10781;50.928;4.440;2023-04-03T11:21:29;3.10;;;1.38;;
21245;SDS011;10781;50.928;4.440;2023-04-03T11:24:02;2.83;;;1.60;;
21245;SDS011;10781;50.928;4.440;2023-04-03T11:26:35;2.92;;;1.50;;
21245;SDS011;10781;50.928;4.440;2023-04-03T11:29:06;4.43;;;1.40;;
21245;SDS011;10781;50.928;4.440;2023-04-03T11:34:36;1.70;;;1.23;;
21245;SDS011;10781;50.928;4.440;2023-04-03T11:39:45;2.80;;;1.45;;
21245;SDS011;10781;50.928;4.440;2023-04-03T11:45:17;12.02;;;7.07;;
21245;SDS011;10781;50.928;4.440;2023-04-03T11:47:52;2.45;;;1.70;;
21245;SDS011;10781;50.928;4.440;2023-04-03T11:55:43;2.75;;;1.80;;
21245;SDS011;10781;50.928;4.440;2023-04-03T11:58:17;3.22;;;1.50;;
21245;SDS011;10781;50.928;4.440;2023-04-03T12:00:48;4.18;;;1.70;;
21245;SDS011;10781;50.928;4.440;2023-04-03T12:23:57;2.38;;;1.30;;
21245;SDS011;10781;50.928;4.440;2023-04-03T12:26:26;3.75;;;1.58;;
21245;SDS011;10781;50.928;4.440;2023-04-03T12:48:34;2.13;;;1.05;;
21245;SDS011;10781;50.928;4.440;2023-04-03T12:51:04;2.38;;;1.20;;
21245;SDS011;10781;50.928;4.440;2023-04-03T12:53:32;3.10;;;1.50;;
21245;SDS011;10781;50.928;4.440;2023-04-03T12:58:49;2.00;;;1.20;;
21245;SDS011;10781;50.928;4.440;2023-04-03T13:01:17;2.88;;;1.30;;
21245;SDS011;10781;50.928;4.440;2023-04-03T13:03:51;3.95;;;1.50;;
21245;SDS011;10781;50.928;4.440;2023-04-03T13:06:21;5.55;;;3.42;;
21245;SDS011;10781;50.928;4.440;2023-04-03T13:08:54;5.43;;;2.92;;
21245;SDS011;10781;50.928;4.440;2023-04-03T13:11:22;14.45;;;12.93;;
21245;SDS011;10781;50.928;4.440;2023-04-03T13:13:59;4.00;;;1.30;;
21245;SDS011;10781;50.928;4.440;2023-04-03T13:16:28;2.65;;;1.40;;
21245;SDS011;10781;50.928;4.440;2023-04-03T13:18:55;2.20;;;1.30;;
21245;SDS011;10781;50.928;4.440;2023-04-03T13:21:22;2.30;;;1.30;;
21245;SDS011;10781;50.928;4.440;2023-04-03T13:23:54;4.70;;;1.30;;
21245;SDS011;10781;50.928;4.440;2023-04-03T13:26:28;1.88;;;1.20;;
21245;SDS011;10781;50.928;4.440;2023-04-03T13:28:57;2.08;;;1.33;;
21245;SDS011;10781;50.928;4.440;2023-04-03T13:31:29;2.92;;;1.63;;
21245;SDS011;10781;50.928;4.440;2023-04-03T13:36:37;3.10;;;1.90;;
21245;SDS011;10781;50.928;4.440;2023-04-03T13:41:50;4.13;;;1.42;;
21245;SDS011;10781;50.928;4.440;2023-04-03T13:46:57;5.30;;;1.60;;
21245;SDS011;10781;50.928;4.440;2023-04-03T13:49:29;4.40;;;1.70;;
21245;SDS011;10781;50.928;4.440;2023-04-03T13:51:55;3.05;;;1.50;;
21245;SDS011;10781;50.928;4.440;2023-04-03T13:54:37;2.55;;;1.60;;
21245;SDS011;10781;50.928;4.440;2023-04-03T13:57:11;3.38;;;1.50;;
21245;SDS011;10781;50.928;4.440;2023-04-03T13:59:41;2.45;;;1.25;;
21245;SDS011;10781;50.928;4.440;2023-04-03T14:02:19;2.55;;;1.60;;
21245;SDS011;10781;50.928;4.440;2023-04-03T14:04:51;3.80;;;1.70;;
21245;SDS011;10781;50.928;4.440;2023-04-03T14:07:25;2.13;;;1.38;;
21245;SDS011;10781;50.928;4.440;2023-04-03T14:09:51;3.08;;;1.45;;
21245;SDS011;10781;50.928;4.440;2023-04-03T14:12:18;2.25;;;1.30;;
21245;SDS011;10781;50.928;4.440;2023-04-03T14:14:52;2.85;;;1.60;;
21245;SDS011;10781;50.928;4.440;2023-04-03T14:17:23;2.58;;;1.27;;
21245;SDS011;10781;50.928;4.440;2023-04-03T14:19:50;4.45;;;1.33;;
21245;SDS011;10781;50.928;4.440;2023-04-03T14:22:19;2.40;;;1.30;;
21245;SDS011;10781;50.928;4.440;2023-04-03T14:24:56;2.72;;;1.40;;
21245;SDS011;10781;50.928;4.440;2023-04-03T14:27:23;4.43;;;1.40;;
21245;SDS011;10781;50.928;4.440;2023-04-03T14:29:54;2.38;;;1.35;;
21245;SDS011;10781;50.928;4.440;2023-04-03T14:32:22;2.58;;;1.50;;
21245;SDS011;10781;50.928;4.440;2023-04-03T14:34:49;3.38;;;1.42;;
21245;SDS011;10781;50.928;4.440;2023-04-03T14:37:17;1.73;;;1.27;;
21245;SDS011;10781;50.928;4.440;2023-04-03T14:39:46;2.83;;;1.30;;
21245;SDS011;10781;50.928;4.440;2023-04-03T14:42:16;2.67;;;1.38;;
21245;SDS011;10781;50.928;4.440;2023-04-03T14:44:45;4.07;;;1.38;;
21245;SDS011;10781;50.928;4.440;2023-04-03T14:47:16;3.55;;;1.67;;
21245;SDS011;10781;50.928;4.440;2023-04-03T14:49:46;3.72;;;1.58;;
21245;SDS011;10781;50.928;4.440;2023-04-03T14:52:31;1.88;;;1.10;;
21245;SDS011;10781;50.928;4.440;2023-04-03T14:55:00;2.90;;;1.60;;
21245;SDS011;10781;50.928;4.440;2023-04-03T14:57:27;4.05;;;1.70;;
21245;SDS011;10781;50.928;4.440;2023-04-03T14:59:53;4.57;;;1.25;;
21245;SDS011;10781;50.928;4.440;2023-04-03T15:02:24;2.42;;;1.30;;
21245;SDS011;10781;50.928;4.440;2023-04-03T15:05:01;3.22;;;1.20;;
21245;SDS011;10781;50.928;4.440;2023-04-03T15:07:34;1.05;;;0.95;;
21245;SDS011;10781;50.928;4.440;2023-04-03T15:12:40;3.15;;;1.15;;
21245;SDS011;10781;50.928;4.440;2023-04-03T15:15:06;1.33;;;0.98;;
21245;SDS011;10781;50.928;4.440;2023-04-03T15:17:32;2.25;;;1.25;;
21245;SDS011;10781;50.928;4.440;2023-04-03T15:20:00;4.65;;;1.20;;
21245;SDS011;10781;50.928;4.440;2023-04-03T15:22:27;3.20;;;1.20;;
21245;SDS011;10781;50.928;4.440;2023-04-03T15:24:53;2.50;;;1.30;;
21245;SDS011;10781;50.928;4.440;2023-04-03T15:27:18;2.33;;;1.35;;
21245;SDS011;10781;50.928;4.440;2023-04-03T15:29:44;1.98;;;1.15;;
21245;SDS011;10781;50.928;4.440;2023-04-03T15:32:11;2.58;;;1.10;;
21245;SDS011;10781;50.928;4.440;2023-04-03T15:34:37;1.77;;;1.13;;
21245;SDS011;10781;50.928;4.440;2023-04-03T15:37:03;2.25;;;1.25;;
21245;SDS011;10781;50.928;4.440;2023-04-03T15:39:30;3.80;;;1.30;;
21245;SDS011;10781;50.928;4.440;2023-04-03T15:41:56;4.40;;;1.40;;
21245;SDS011;10781;50.928;4.440;2023-04-03T15:44:24;3.55;;;1.27;;
21245;SDS011;10781;50.928;4.440;2023-04-03T15:46:50;2.20;;;1.13;;
21245;SDS011;10781;50.928;4.440;2023-04-03T15:49:16;3.25;;;1.15;;
21245;SDS011;10781;50.928;4.440;2023-04-03T15:51:44;1.58;;;1.20;;
21245;SDS011;10781;50.928;4.440;2023-04-03T15:54:10;2.47;;;1.40;;
21245;SDS011;10781;50.928;4.440;2023-04-03T15:56:36;3.28;;;1.33;;
21245;SDS011;10781;50.928;4.440;2023-04-03T15:59:02;2.55;;;1.65;;
21245;SDS011;10781;50.928;4.440;2023-04-03T16:01:28;3.83;;;1.52;;
21245;SDS011;10781;50.928;4.440;2023-04-03T16:03:54;20.73;;;18.40;;
21245;SDS011;10781;50.928;4.440;2023-04-03T16:06:20;15.65;;;13.13;;
21245;SDS011;10781;50.928;4.440;2023-04-03T16:08:46;3.30;;;1.75;;
21245;SDS011;10781;50.928;4.440;2023-04-03T16:11:14;4.45;;;1.65;;
21245;SDS011;10781;50.928;4.440;2023-04-03T16:13:39;8.18;;;4.90;;
21245;SDS011;10781;50.928;4.440;2023-04-03T16:16:05;13.30;;;11.85;;
21245;SDS011;10781;50.928;4.440;2023-04-03T16:18:32;8.43;;;6.63;;
21245;SDS011;10781;50.928;4.440;2023-04-03T16:21:00;12.15;;;6.68;;
21245;SDS011;10781;50.928;4.440;2023-04-03T16:23:26;5.43;;;1.70;;
21245;SDS011;10781;50.928;4.440;2023-04-03T16:25:52;2.42;;;1.50;;
21245;SDS011;10781;50.928;4.440;2023-04-03T16:28:18;3.00;;;1.60;;
21245;SDS011;10781;50.928;4.440;2023-04-03T16:30:44;2.28;;;1.48;;
21245;SDS011;10781;50.928;4.440;2023-04-03T16:33:12;6.32;;;1.40;;
21245;SDS011;10781;50.928;4.440;2023-04-03T16:35:39;4.10;;;1.42;;
21245;SDS011;10781;50.928;4.440;2023-04-03T16:38:08;5.15;;;1.70;;
21245;SDS011;10781;50.928;4.440;2023-04-03T16:40:36;4.45;;;1.38;;
21245;SDS011;10781;50.928;4.440;2023-04-03T16:43:03;2.65;;;1.30;;
21245;SDS011;10781;50.928;4.440;2023-04-03T16:45:29;3.85;;;1.70;;
21245;SDS011;10781;50.928;4.440;2023-04-03T16:48:01;4.50;;;1.50;;
21245;SDS011;10781;50.928;4.440;2023-04-03T16:50:27;3.97;;;1.55;;
21245;SDS011;10781;50.928;4.440;2023-04-03T16:52:52;4.13;;;1.73;;
21245;SDS011;10781;50.928;4.440;2023-04-03T16:55:18;2.20;;;1.75;;